createdAt,value
2019-03-28T00:01:15.889Z,16.70
2019-03-28T00:03:45.679Z,16.97
2019-03-28T00:06:14.132Z,17.00
2019-03-28T00:08:42.747Z,16.20
2019-03-28T00:11:11.670Z,15.93
2019-03-28T00:13:40.342Z,14.90
2019-03-28T00:16:08.895Z,14.50
2019-03-28T00:18:37.350Z,14.83
2019-03-28T00:21:05.905Z,14.47
2019-03-28T00:23:49.505Z,15.00
2019-03-28T00:26:29.390Z,15.70
2019-03-28T00:28:48.597Z,15.07
2019-03-28T00:31:17.182Z,16.03
2019-03-28T00:33:45.846Z,15.63
2019-03-28T00:36:15.440Z,15.93
2019-03-28T00:38:44.228Z,14.30
2019-03-28T00:41:13.121Z,15.17
2019-03-28T00:43:41.986Z,15.17
2019-03-28T00:46:10.628Z,15.73
2019-03-28T00:48:39.942Z,15.47
2019-03-28T00:51:08.939Z,15.03
2019-03-28T00:53:37.394Z,14.10
2019-03-28T00:56:06.477Z,15.03
2019-03-28T00:58:35.224Z,14.77
2019-03-28T01:01:05.116Z,15.30
2019-03-28T01:03:33.978Z,14.80
2019-03-28T01:06:02.478Z,14.30
2019-03-28T01:08:31.402Z,15.43
2019-03-28T01:11:00.473Z,15.00
2019-03-28T01:13:29.180Z,15.00
2019-03-28T01:15:58.260Z,13.50
2019-03-28T01:18:27.229Z,15.07
2019-03-28T01:20:56.672Z,15.67
2019-03-28T01:23:25.679Z,15.30
2019-03-28T01:25:54.637Z,14.47
2019-03-28T01:28:26.373Z,16.17
2019-03-28T01:30:54.078Z,15.60
2019-03-28T01:33:23.157Z,14.37
2019-03-28T01:35:52.157Z,15.63
2019-03-28T01:38:21.258Z,14.60
2019-03-28T01:40:51.078Z,16.03
2019-03-28T01:43:18.561Z,15.77
2019-03-28T01:45:47.019Z,16.30
2019-03-28T01:48:16.036Z,14.80
2019-03-28T01:50:44.849Z,16.90
2019-03-28T01:53:13.813Z,16.03
2019-03-28T01:55:42.516Z,16.33
2019-03-28T01:58:11.480Z,15.63
2019-03-28T02:00:40.657Z,16.50
2019-03-28T02:03:10.009Z,15.77
2019-03-28T02:05:39.000Z,16.63
2019-03-28T02:08:07.494Z,16.40
2019-03-28T02:10:36.424Z,15.77
2019-03-28T02:13:05.114Z,15.93
2019-03-28T02:15:33.945Z,18.13
2019-03-28T02:18:03.292Z,16.30
2019-03-28T02:20:32.213Z,17.57
2019-03-28T02:23:01.275Z,17.63
2019-03-28T02:25:29.848Z,17.10
2019-03-28T02:27:59.602Z,16.87
2019-03-28T02:30:32.400Z,17.87
2019-03-28T02:33:02.193Z,17.83
2019-03-28T02:35:31.721Z,17.57
2019-03-28T02:38:00.897Z,17.43
2019-03-28T02:40:29.907Z,18.70
2019-03-28T02:42:58.717Z,17.00
2019-03-28T02:45:27.811Z,17.67
2019-03-28T02:47:56.520Z,15.93
2019-03-28T02:50:25.588Z,16.93
2019-03-28T02:52:54.684Z,18.73
2019-03-28T02:55:23.864Z,16.10
2019-03-28T02:57:53.754Z,18.27
2019-03-28T03:00:22.647Z,16.83
2019-03-28T03:02:51.771Z,18.30
2019-03-28T03:05:20.790Z,19.07
2019-03-28T03:07:50.328Z,16.53
2019-03-28T03:10:18.910Z,17.93
2019-03-28T03:12:47.743Z,17.53
2019-03-28T03:15:16.291Z,17.50
2019-03-28T03:17:45.216Z,16.90
2019-03-28T03:20:14.519Z,15.97
2019-03-28T03:22:43.734Z,16.40
2019-03-28T03:25:12.888Z,16.60
2019-03-28T03:27:57.130Z,17.33
2019-03-28T03:30:13.001Z,16.73
2019-03-28T03:32:42.277Z,18.57
2019-03-28T03:35:11.464Z,16.37
2019-03-28T03:37:40.188Z,16.57
2019-03-28T03:40:08.984Z,17.10
2019-03-28T03:42:37.986Z,15.80
2019-03-28T03:45:08.994Z,16.50
2019-03-28T03:47:38.434Z,16.93
2019-03-28T03:50:08.478Z,16.53
2019-03-28T03:52:37.818Z,18.23
2019-03-28T03:55:07.281Z,16.67
2019-03-28T03:57:35.346Z,16.93
2019-03-28T04:00:05.160Z,14.63
2019-03-28T04:02:34.880Z,16.27
2019-03-28T04:05:04.523Z,14.40
2019-03-28T04:07:33.325Z,15.30
2019-03-28T04:10:02.279Z,15.43
2019-03-28T04:12:31.610Z,13.70
2019-03-28T04:15:00.851Z,15.70
2019-03-28T04:17:29.810Z,15.13
2019-03-28T04:19:58.946Z,14.63
2019-03-28T04:22:27.808Z,15.33
2019-03-28T04:24:56.614Z,15.00
2019-03-28T04:27:25.177Z,16.23
2019-03-28T04:29:54.637Z,16.13
2019-03-28T04:32:23.495Z,15.40
2019-03-28T04:34:52.186Z,15.03
2019-03-28T04:37:21.142Z,13.90
2019-03-28T04:39:49.922Z,14.43
2019-03-28T04:42:18.570Z,14.00
2019-03-28T04:44:47.105Z,14.30
2019-03-28T04:47:15.678Z,14.53
2019-03-28T04:49:44.385Z,15.27
2019-03-28T04:52:13.094Z,16.80
2019-03-28T04:54:41.574Z,15.07
2019-03-28T04:57:10.105Z,15.60
2019-03-28T04:59:38.665Z,15.23
2019-03-28T05:02:07.219Z,15.53
2019-03-28T05:04:40.522Z,16.30
2019-03-28T05:07:08.541Z,15.87
2019-03-28T05:09:36.671Z,15.13
2019-03-28T05:12:05.125Z,15.40
2019-03-28T05:14:33.765Z,16.33
2019-03-28T05:17:02.519Z,15.57
2019-03-28T05:19:31.403Z,16.00
2019-03-28T05:22:00.205Z,14.60
2019-03-28T05:24:29.314Z,15.43
2019-03-28T05:26:58.062Z,16.57
2019-03-28T05:29:28.126Z,15.60
2019-03-28T05:31:57.086Z,15.17
2019-03-28T05:34:26.089Z,15.37
2019-03-28T05:36:54.826Z,16.40
2019-03-28T05:39:24.011Z,16.70
2019-03-28T05:41:52.998Z,16.50
2019-03-28T05:44:21.963Z,17.03
2019-03-28T05:46:50.731Z,17.30
2019-03-28T05:49:19.961Z,17.30
2019-03-28T05:51:49.141Z,17.00
2019-03-28T05:54:18.179Z,16.00
2019-03-28T05:56:47.198Z,17.80
2019-03-28T05:59:16.714Z,16.90
2019-03-28T06:01:45.290Z,17.07
2019-03-28T06:04:14.188Z,17.20
2019-03-28T06:06:43.163Z,16.60
2019-03-28T06:09:12.140Z,17.37
2019-03-28T06:11:43.966Z,16.73
2019-03-28T06:14:20.750Z,17.17
2019-03-28T06:16:49.811Z,14.23
2019-03-28T06:19:20.773Z,15.97
2019-03-28T06:21:50.014Z,17.40
2019-03-28T06:24:19.422Z,16.73
2019-03-28T06:26:50.074Z,16.77
2019-03-28T06:29:24.234Z,17.50
2019-03-28T06:31:55.269Z,16.80
2019-03-28T06:34:22.876Z,15.73
2019-03-28T06:36:51.870Z,16.30
2019-03-28T06:39:21.367Z,18.03
2019-03-28T06:41:51.349Z,17.07
2019-03-28T06:44:20.670Z,15.90
2019-03-28T06:46:49.473Z,17.10
2019-03-28T06:49:18.249Z,18.60
2019-03-28T06:51:47.224Z,18.30
2019-03-28T06:54:18.874Z,17.23
2019-03-28T06:56:47.686Z,17.37
2019-03-28T06:59:16.249Z,16.57
2019-03-28T07:01:44.893Z,17.13
2019-03-28T07:04:13.438Z,16.50
2019-03-28T07:06:42.023Z,15.40
2019-03-28T07:09:10.701Z,16.70
2019-03-28T07:11:39.594Z,17.60
2019-03-28T07:14:08.152Z,16.20
2019-03-28T07:16:36.807Z,18.00
2019-03-28T07:19:05.481Z,17.40
2019-03-28T07:21:34.054Z,17.00
2019-03-28T07:24:02.844Z,17.20
2019-03-28T07:26:31.932Z,16.47
2019-03-28T07:29:00.502Z,17.23
2019-03-28T07:31:29.606Z,16.40
2019-03-28T07:33:58.896Z,16.67
2019-03-28T07:36:27.684Z,17.40
2019-03-28T07:38:56.500Z,18.23
2019-03-28T07:41:25.306Z,17.40
2019-03-28T07:43:53.859Z,17.50
2019-03-28T07:46:22.671Z,16.90
2019-03-28T07:48:51.658Z,18.27
2019-03-28T07:51:20.208Z,16.80
2019-03-28T07:53:49.008Z,16.57
2019-03-28T07:56:17.481Z,17.13
2019-03-28T07:58:46.066Z,17.10
2019-03-28T08:01:17.907Z,18.00
2019-03-28T08:03:45.490Z,19.97
2019-03-28T08:06:14.149Z,19.70
2019-03-28T08:08:44.158Z,22.17
2019-03-28T08:11:12.947Z,16.30
2019-03-28T08:13:41.545Z,17.73
2019-03-28T08:16:09.993Z,16.73
2019-03-28T08:18:38.649Z,16.40
2019-03-28T08:21:07.445Z,14.67
2019-03-28T08:23:35.910Z,16.50
2019-03-28T08:26:04.511Z,15.43
2019-03-28T08:28:33.138Z,16.17
2019-03-28T08:31:01.777Z,14.97
2019-03-28T08:33:33.145Z,16.17
2019-03-28T08:36:01.809Z,16.10
2019-03-28T08:38:32.903Z,15.47
2019-03-28T08:41:01.630Z,15.00
2019-03-28T08:43:30.083Z,16.43
2019-03-28T08:45:58.738Z,15.87
2019-03-28T08:48:27.299Z,15.97
2019-03-28T08:50:55.829Z,16.87
2019-03-28T08:53:24.533Z,15.33
2019-03-28T08:55:53.017Z,15.77
2019-03-28T08:58:21.526Z,15.13
2019-03-28T09:00:52.822Z,15.00
2019-03-28T09:03:20.506Z,13.90
2019-03-28T09:05:48.954Z,15.47
2019-03-28T09:08:17.513Z,14.83
2019-03-28T09:10:46.171Z,13.27
2019-03-28T09:13:14.726Z,13.47
2019-03-28T09:15:46.067Z,12.97
2019-03-28T09:18:14.513Z,11.87
2019-03-28T09:20:42.982Z,10.63
2019-03-28T09:23:11.447Z,11.07
2019-03-28T09:25:39.971Z,10.10
2019-03-28T09:28:12.754Z,11.23
2019-03-28T09:30:48.763Z,10.83
2019-03-28T09:33:12.178Z,12.13
2019-03-28T09:35:40.964Z,10.60
2019-03-28T09:38:09.856Z,12.53
2019-03-28T09:40:41.166Z,11.30
2019-03-28T09:43:09.606Z,11.70
2019-03-28T09:45:38.154Z,11.30
2019-03-28T09:48:06.821Z,11.13
2019-03-28T09:50:35.465Z,10.10
2019-03-28T09:53:06.385Z,10.50
2019-03-28T09:55:35.545Z,9.90
2019-03-28T09:58:04.887Z,10.20
2019-03-28T10:00:34.710Z,9.80
2019-03-28T10:03:07.850Z,10.20
2019-03-28T10:05:38.210Z,9.87
2019-03-28T10:08:07.330Z,10.83
2019-03-28T10:10:36.410Z,12.00
2019-03-28T10:13:04.985Z,10.40
2019-03-28T10:15:37.010Z,9.83
2019-03-28T10:18:06.591Z,8.63
2019-03-28T10:20:35.668Z,9.53
2019-03-28T10:23:05.299Z,9.63
2019-03-28T10:25:37.774Z,7.73
2019-03-28T10:28:06.418Z,9.20
2019-03-28T10:30:42.041Z,8.30
2019-03-28T10:33:09.973Z,10.20
2019-03-28T10:35:41.230Z,10.90
2019-03-28T10:38:10.340Z,9.00
2019-03-28T10:40:39.458Z,9.10
2019-03-28T10:43:08.621Z,9.40
2019-03-28T10:45:37.283Z,10.40
2019-03-28T10:48:07.017Z,10.63
2019-03-28T10:50:42.236Z,10.10
2019-03-28T10:53:06.679Z,11.53
2019-03-28T10:55:35.942Z,11.90
2019-03-28T10:58:17.475Z,9.30
2019-03-28T11:00:36.289Z,9.93
2019-03-28T11:03:05.544Z,10.33
2019-03-28T11:05:34.349Z,8.60
2019-03-28T11:08:03.178Z,8.00
2019-03-28T11:10:31.982Z,9.13
2019-03-28T11:13:01.623Z,9.23
2019-03-28T11:15:30.185Z,9.03
2019-03-28T11:17:58.997Z,9.40
2019-03-28T11:20:27.793Z,8.53
2019-03-28T11:23:02.143Z,10.20
2019-03-28T11:25:29.987Z,10.03
2019-03-28T11:28:00.742Z,8.70
2019-03-28T11:30:29.540Z,9.30
2019-03-28T11:32:58.378Z,9.77
2019-03-28T11:35:27.817Z,8.97
2019-03-28T11:37:56.798Z,9.13
2019-03-28T11:40:25.613Z,10.77
2019-03-28T11:42:54.557Z,9.77
2019-03-28T11:45:23.225Z,9.90
2019-03-28T11:47:52.748Z,9.33
2019-03-28T11:50:21.305Z,9.47
2019-03-28T11:52:50.477Z,9.57
2019-03-28T11:55:19.063Z,10.40
2019-03-28T11:57:47.698Z,10.50
2019-03-28T12:00:18.453Z,9.60
2019-03-28T12:02:47.034Z,10.73
2019-03-28T12:05:15.603Z,9.73
2019-03-28T12:07:44.056Z,10.70
2019-03-28T12:10:15.608Z,11.43
2019-03-28T12:12:44.824Z,11.00
2019-03-28T12:15:13.589Z,9.10
2019-03-28T12:17:42.059Z,10.60
2019-03-28T12:20:10.915Z,10.13
2019-03-28T12:22:42.092Z,10.50
2019-03-28T12:25:11.304Z,11.50
2019-03-28T12:27:39.850Z,12.03
2019-03-28T12:30:10.392Z,13.63
2019-03-28T12:32:38.994Z,11.53
2019-03-28T12:35:08.111Z,11.87
2019-03-28T12:37:36.818Z,12.43
2019-03-28T12:40:07.598Z,12.00
2019-03-28T12:42:36.269Z,12.03
2019-03-28T12:45:10.463Z,12.63
2019-03-28T12:47:42.758Z,12.40
2019-03-28T12:50:10.433Z,12.20
2019-03-28T12:52:39.028Z,11.90
2019-03-28T12:55:09.887Z,12.50
2019-03-28T12:57:39.199Z,11.83
2019-03-28T13:00:08.682Z,12.07
2019-03-28T13:02:37.361Z,12.10
2019-03-28T13:05:06.471Z,12.27
2019-03-28T13:07:38.059Z,12.60
2019-03-28T13:10:07.676Z,12.80
2019-03-28T13:12:36.368Z,11.57
2019-03-28T13:15:05.987Z,14.77
2019-03-28T13:17:40.873Z,11.63
2019-03-28T13:20:08.840Z,12.13
2019-03-28T13:22:37.318Z,13.67
2019-03-28T13:25:06.158Z,13.30
2019-03-28T13:27:35.818Z,14.07
2019-03-28T13:30:06.854Z,13.70
2019-03-28T13:32:41.701Z,13.03
2019-03-28T13:35:07.334Z,14.23
2019-03-28T13:37:36.018Z,13.60
2019-03-28T13:40:05.053Z,11.03
2019-03-28T13:42:33.607Z,10.67
2019-03-28T13:45:02.235Z,10.73
2019-03-28T13:47:30.818Z,10.77
2019-03-28T13:49:59.417Z,11.00
2019-03-28T13:52:27.968Z,11.80
2019-03-28T13:54:57.706Z,12.40
2019-03-28T13:57:26.259Z,10.77
2019-03-28T13:59:54.827Z,11.10
2019-03-28T14:02:23.264Z,11.00
2019-03-28T14:04:51.830Z,11.90
2019-03-28T14:07:22.852Z,11.10
2019-03-28T14:09:55.114Z,12.40
2019-03-28T14:12:24.007Z,12.13
2019-03-28T14:14:52.484Z,11.37
2019-03-28T14:17:25.250Z,11.77
2019-03-28T14:19:53.979Z,11.93
2019-03-28T14:22:23.192Z,10.90
2019-03-28T14:24:52.080Z,11.57
2019-03-28T14:27:20.791Z,11.60
2019-03-28T14:29:52.955Z,11.43
2019-03-28T14:32:21.864Z,11.67
2019-03-28T14:34:51.206Z,11.33
2019-03-28T14:37:20.180Z,12.97
2019-03-28T14:39:49.314Z,11.40
2019-03-28T14:42:19.924Z,11.87
2019-03-28T14:44:48.862Z,12.00
2019-03-28T14:47:17.393Z,11.30
2019-03-28T14:49:46.616Z,11.97
2019-03-28T14:52:15.548Z,12.97
2019-03-28T14:54:47.553Z,13.80
2019-03-28T14:57:16.930Z,13.77
2019-03-28T14:59:46.089Z,12.57
2019-03-28T15:02:14.849Z,14.10
2019-03-28T15:04:43.666Z,13.23
2019-03-28T15:07:15.349Z,13.27
2019-03-28T15:09:44.402Z,13.83
2019-03-28T15:12:13.092Z,13.03
2019-03-28T15:14:42.358Z,14.93
2019-03-28T15:17:11.618Z,14.03
2019-03-28T15:19:41.976Z,16.27
2019-03-28T15:22:10.802Z,16.27
2019-03-28T15:24:39.519Z,15.23
2019-03-28T15:27:08.438Z,15.87
2019-03-28T15:29:37.490Z,16.20
2019-03-28T15:32:06.769Z,16.27
2019-03-28T15:34:35.806Z,16.17
2019-03-28T15:37:04.583Z,15.63
2019-03-28T15:39:33.369Z,15.83
2019-03-28T15:42:02.275Z,16.37
2019-03-28T15:44:30.995Z,16.20
2019-03-28T15:46:59.624Z,16.10
2019-03-28T15:49:28.622Z,16.13
2019-03-28T15:51:57.778Z,15.10
2019-03-28T15:54:26.702Z,15.27
2019-03-28T15:56:58.485Z,15.03
2019-03-28T15:59:26.393Z,15.63
2019-03-28T16:01:55.379Z,15.97
2019-03-28T16:04:24.923Z,14.87
2019-03-28T16:06:54.255Z,13.30
2019-03-28T16:09:23.301Z,15.87
2019-03-28T16:12:02.415Z,15.90
2019-03-28T16:14:24.410Z,14.33
2019-03-28T16:16:53.533Z,15.20
2019-03-28T16:19:22.357Z,15.80
2019-03-28T16:21:51.434Z,16.70
2019-03-28T16:24:21.313Z,14.90
2019-03-28T16:26:51.021Z,16.10
2019-03-28T16:29:19.761Z,15.93
2019-03-28T16:31:48.422Z,14.63
2019-03-28T16:34:17.383Z,14.80
2019-03-28T16:36:45.839Z,15.50
2019-03-28T16:39:14.433Z,15.90
2019-03-28T16:41:43.773Z,15.40
2019-03-28T16:44:12.783Z,15.40
2019-03-28T16:46:41.866Z,17.43
2019-03-28T16:49:11.063Z,16.70
2019-03-28T16:51:43.230Z,15.30
2019-03-28T16:54:10.938Z,15.93
2019-03-28T16:56:41.918Z,15.90
2019-03-28T16:59:12.185Z,14.40
2019-03-28T17:01:41.368Z,15.23
2019-03-28T17:04:19.999Z,16.50
2019-03-28T17:06:40.906Z,16.50
2019-03-28T17:09:10.086Z,15.07
2019-03-28T17:11:38.938Z,15.97
2019-03-28T17:14:07.851Z,15.70
2019-03-28T17:16:38.958Z,15.70
2019-03-28T17:19:12.129Z,15.17
2019-03-28T17:21:40.934Z,15.40
2019-03-28T17:24:09.606Z,14.60
2019-03-28T17:26:38.698Z,17.60
2019-03-28T17:29:07.946Z,17.57
2019-03-28T17:31:38.705Z,17.57
2019-03-28T17:34:07.868Z,17.23
2019-03-28T17:36:36.833Z,19.10
2019-03-28T17:39:06.381Z,18.07
2019-03-28T17:41:39.617Z,18.70
2019-03-28T17:44:08.589Z,18.43
2019-03-28T17:46:37.535Z,17.77
2019-03-28T17:49:06.389Z,18.63
2019-03-28T17:51:35.737Z,17.70
2019-03-28T17:54:07.689Z,17.33
2019-03-28T17:56:35.852Z,17.07
2019-03-28T17:59:04.768Z,17.83
2019-03-28T18:01:33.826Z,18.10
2019-03-28T18:04:03.049Z,16.17
2019-03-28T18:06:35.171Z,16.03
2019-03-28T18:09:06.493Z,15.17
2019-03-28T18:11:35.349Z,16.20
2019-03-28T18:14:04.367Z,14.20
2019-03-28T18:16:34.216Z,14.13
2019-03-28T18:19:04.029Z,13.10
2019-03-28T18:21:33.138Z,10.13
2019-03-28T18:24:02.378Z,9.07
2019-03-28T18:26:31.380Z,9.80
2019-03-28T18:29:01.149Z,10.77
2019-03-28T18:31:31.202Z,11.80
2019-03-28T18:34:00.301Z,11.10
2019-03-28T18:36:29.116Z,12.00
2019-03-28T18:38:57.832Z,13.00
2019-03-28T18:41:26.417Z,11.67
2019-03-28T18:43:57.574Z,11.40
2019-03-28T18:46:26.496Z,10.00
2019-03-28T18:48:55.202Z,10.43
2019-03-28T18:51:23.754Z,11.47
2019-03-28T18:53:52.392Z,11.33
2019-03-28T18:56:27.090Z,11.00
2019-03-28T18:58:55.678Z,10.67
2019-03-28T19:01:24.607Z,9.80
2019-03-28T19:03:53.367Z,9.07
2019-03-28T19:06:22.063Z,10.10
2019-03-28T19:08:52.326Z,10.10
2019-03-28T19:11:20.996Z,9.17
2019-03-28T19:13:49.475Z,9.00
2019-03-28T19:16:20.306Z,8.77
2019-03-28T19:18:48.722Z,9.40
2019-03-28T19:21:19.049Z,8.47
2019-03-28T19:23:47.703Z,8.23
2019-03-28T19:26:16.298Z,8.70
2019-03-28T19:28:45.966Z,8.07
2019-03-28T19:31:14.628Z,8.20
2019-03-28T19:33:44.917Z,8.40
2019-03-28T19:36:14.079Z,9.00
2019-03-28T19:38:43.036Z,8.00
2019-03-28T19:41:11.606Z,8.00
2019-03-28T19:43:41.701Z,8.93
2019-03-28T19:46:15.010Z,7.87
2019-03-28T19:48:42.568Z,7.90
2019-03-28T19:51:11.221Z,8.20
2019-03-28T19:53:39.676Z,8.70
2019-03-28T19:56:09.154Z,7.50
2019-03-28T19:58:39.969Z,9.33
2019-03-28T20:01:09.773Z,8.93
2019-03-28T20:03:38.466Z,7.97
2019-03-28T20:06:07.044Z,9.37
2019-03-28T20:08:35.602Z,9.20
2019-03-28T20:11:05.169Z,9.00
2019-03-28T20:13:33.822Z,9.23
2019-03-28T20:16:02.542Z,10.63
2019-03-28T20:18:31.935Z,11.17
2019-03-28T20:21:01.133Z,10.40
2019-03-28T20:23:35.759Z,10.00
2019-03-28T20:26:04.773Z,14.20
2019-03-28T20:28:33.597Z,13.40
2019-03-28T20:31:02.403Z,15.70
2019-03-28T20:33:32.274Z,12.60
2019-03-28T20:36:23.586Z,12.70
2019-03-28T20:38:31.358Z,12.83
2019-03-28T20:41:00.085Z,12.73
2019-03-28T20:43:28.717Z,12.67
2019-03-28T20:46:00.287Z,13.30
2019-03-28T20:48:28.870Z,13.20
2019-03-28T20:50:57.857Z,12.90
2019-03-28T20:53:26.887Z,12.23
2019-03-28T20:55:55.867Z,13.03
2019-03-28T20:58:30.521Z,12.93
2019-03-28T21:00:58.164Z,12.23
2019-03-28T21:03:26.713Z,14.33
2019-03-28T21:05:56.219Z,12.90
2019-03-28T21:08:24.796Z,12.67
2019-03-28T21:10:53.374Z,13.40
2019-03-28T21:13:22.131Z,11.97
2019-03-28T21:15:50.722Z,11.80
2019-03-28T21:18:19.427Z,14.17
2019-03-28T21:20:47.976Z,13.40
2019-03-28T21:23:16.564Z,14.00
2019-03-28T21:25:45.119Z,13.53
2019-03-28T21:28:14.042Z,13.20
2019-03-28T21:30:47.485Z,13.63
2019-03-28T21:33:15.142Z,13.20
2019-03-28T21:35:46.803Z,13.40
2019-03-28T21:38:17.263Z,14.00
2019-03-28T21:40:46.546Z,14.07
2019-03-28T21:43:15.400Z,15.50
2019-03-28T21:45:45.442Z,14.30
2019-03-28T21:48:16.917Z,15.10
2019-03-28T21:50:46.337Z,13.53
2019-03-28T21:53:15.348Z,17.63
2019-03-28T21:55:54.325Z,18.60
2019-03-28T21:58:15.066Z,16.47
2019-03-28T22:00:43.958Z,18.00
2019-03-28T22:03:12.974Z,16.27
2019-03-28T22:05:46.805Z,17.90
2019-03-28T22:08:17.557Z,18.40
2019-03-28T22:10:46.174Z,18.57
2019-03-28T22:13:14.886Z,18.83
2019-03-28T22:15:43.358Z,17.30
2019-03-28T22:18:12.331Z,17.93
2019-03-28T22:20:41.337Z,19.70
2019-03-28T22:23:13.340Z,19.13
2019-03-28T22:25:41.020Z,19.50
2019-03-28T22:28:10.210Z,19.67
2019-03-28T22:30:39.517Z,20.03
2019-03-28T22:33:08.498Z,19.17
2019-03-28T22:35:37.201Z,19.47
2019-03-28T22:38:06.305Z,18.33
2019-03-28T22:40:35.494Z,18.70
2019-03-28T22:43:04.552Z,20.03
2019-03-28T22:45:33.273Z,17.90
2019-03-28T22:48:10.699Z,18.30
2019-03-28T22:50:33.605Z,20.03
2019-03-28T22:53:02.679Z,17.57
2019-03-28T22:55:32.887Z,19.10
2019-03-28T22:58:00.562Z,18.90
2019-03-28T23:00:47.987Z,18.77
2019-03-28T23:03:16.737Z,18.33
2019-03-28T23:05:45.911Z,18.50
2019-03-28T23:11:05.038Z,17.67
2019-03-28T23:13:44.685Z,18.30
2019-03-28T23:16:24.588Z,19.30
2019-03-28T23:19:05.349Z,18.05
2019-03-28T23:21:45.940Z,18.30
2019-03-28T23:24:27.182Z,17.45
2019-03-28T23:27:08.751Z,20.15
2019-03-28T23:29:49.517Z,19.95
2019-03-28T23:32:33.853Z,18.27
2019-03-28T23:35:15.051Z,18.92
2019-03-28T23:37:56.129Z,18.10
2019-03-28T23:40:37.048Z,18.65
2019-03-28T23:43:17.485Z,18.42
2019-03-28T23:45:56.986Z,18.77
2019-03-28T23:48:37.641Z,19.77
2019-03-28T23:51:17.322Z,19.27
2019-03-28T23:53:57.443Z,17.95
2019-03-28T23:56:37.876Z,18.27
2019-03-28T23:59:18.851Z,18.87
